createdAt,value
2019-03-26T00:02:37.282Z,0
2019-03-26T00:05:43.241Z,0
2019-03-26T00:08:49.405Z,0
2019-03-26T00:11:55.278Z,0
2019-03-26T00:15:01.221Z,0
2019-03-26T00:18:12.490Z,0
2019-03-26T00:21:18.364Z,0
2019-03-26T00:24:24.321Z,0
2019-03-26T00:27:30.281Z,0
2019-03-26T00:30:36.154Z,0
2019-03-26T00:33:42.097Z,0
2019-03-26T00:36:48.155Z,0
2019-03-26T00:39:54.034Z,0
2019-03-26T00:43:00.078Z,0
2019-03-26T00:46:20.639Z,0
2019-03-26T00:49:26.504Z,0
2019-03-26T00:52:32.502Z,0
2019-03-26T00:55:38.472Z,0
2019-03-26T00:58:44.424Z,0
2019-03-26T01:01:50.387Z,0
2019-03-26T01:04:56.344Z,0
2019-03-26T01:08:02.224Z,0
2019-03-26T01:11:08.159Z,0
2019-03-26T01:14:14.225Z,0
2019-03-26T01:17:22.765Z,0
2019-03-26T01:20:28.701Z,0
2019-03-26T01:23:34.760Z,0
2019-03-26T01:26:40.635Z,0
2019-03-26T01:29:46.687Z,0
2019-03-26T01:32:52.558Z,0
2019-03-26T01:35:58.604Z,0
2019-03-26T01:39:04.565Z,0
2019-03-26T01:42:10.522Z,0
2019-03-26T01:45:16.480Z,0
2019-03-26T01:48:22.383Z,0
2019-03-26T01:51:28.301Z,0
2019-03-26T01:54:34.422Z,0
2019-03-26T01:57:40.324Z,0
2019-03-26T02:00:46.382Z,0
2019-03-26T02:03:52.346Z,0
2019-03-26T02:06:58.318Z,0
2019-03-26T02:10:04.419Z,0
2019-03-26T02:13:10.304Z,0
2019-03-26T02:16:16.381Z,0
2019-03-26T02:19:22.374Z,0
2019-03-26T02:22:28.310Z,0
2019-03-26T02:25:34.433Z,0
2019-03-26T02:28:40.302Z,0
2019-03-26T02:31:46.288Z,0
2019-03-26T02:34:52.182Z,0
2019-03-26T02:37:58.144Z,0
2019-03-26T02:41:03.976Z,0
2019-03-26T02:44:09.921Z,0
2019-03-26T02:47:15.882Z,0
2019-03-26T02:50:21.900Z,0
2019-03-26T02:53:27.985Z,0
2019-03-26T02:56:34.069Z,0
2019-03-26T02:59:40.030Z,0
2019-03-26T03:02:49.042Z,0
2019-03-26T03:05:55.026Z,0
2019-03-26T03:09:01.078Z,0
2019-03-26T03:12:07.051Z,0
2019-03-26T03:15:13.018Z,0
2019-03-26T03:18:19.069Z,0
2019-03-26T03:21:25.131Z,0
2019-03-26T03:24:31.189Z,0
2019-03-26T03:27:37.235Z,0
2019-03-26T03:30:43.308Z,0
2019-03-26T03:33:49.277Z,0
2019-03-26T03:36:55.221Z,0
2019-03-26T03:40:01.202Z,0
2019-03-26T03:43:07.259Z,0
2019-03-26T03:46:13.219Z,0
2019-03-26T03:49:19.182Z,0
2019-03-26T03:52:25.062Z,0
2019-03-26T03:55:31.197Z,0
2019-03-26T03:58:37.190Z,118.1
2019-03-26T04:01:43.224Z,223.2
2019-03-26T04:04:49.158Z,247.7
2019-03-26T04:07:55.145Z,254.9
2019-03-26T04:11:01.071Z,257.8
2019-03-26T04:14:07.161Z,259.2
2019-03-26T04:17:13.171Z,259.2
2019-03-26T04:20:19.266Z,260.6
2019-03-26T04:23:25.246Z,260.6
2019-03-26T04:26:31.117Z,260.6
2019-03-26T04:29:37.068Z,259.2
2019-03-26T04:32:43.106Z,260.6
2019-03-26T04:35:49.086Z,259.2
2019-03-26T04:38:54.967Z,260.6
2019-03-26T04:42:01.016Z,260.6
2019-03-26T04:45:06.886Z,262.1
2019-03-26T04:48:12.889Z,262.1
2019-03-26T04:51:18.881Z,260.6
2019-03-26T04:54:24.754Z,260.6
2019-03-26T04:57:30.695Z,262.1
2019-03-26T05:00:36.870Z,262.1
2019-03-26T05:03:42.818Z,260.6
2019-03-26T05:06:48.782Z,260.6
2019-03-26T05:09:54.739Z,260.6
2019-03-26T05:13:00.706Z,260.6
2019-03-26T05:16:06.660Z,260.6
2019-03-26T05:19:12.618Z,262.1
2019-03-26T05:22:27.187Z,262.1
2019-03-26T05:25:33.065Z,260.6
2019-03-26T05:28:39.010Z,263.5
2019-03-26T05:31:44.961Z,239
2019-03-26T05:34:51.021Z,266.4
2019-03-26T05:37:56.979Z,269.3
2019-03-26T05:41:02.948Z,269.3
2019-03-26T05:44:08.898Z,275
2019-03-26T05:47:14.864Z,277.9
2019-03-26T05:50:20.819Z,282.2
2019-03-26T05:53:26.883Z,280.8
2019-03-26T05:56:33.596Z,286.6
2019-03-26T05:59:39.523Z,286.6
2019-03-26T06:02:45.563Z,298.1
2019-03-26T06:05:51.642Z,292.3
2019-03-26T06:08:57.613Z,302.4
2019-03-26T06:12:03.671Z,290.9
2019-03-26T06:15:09.562Z,293.8
2019-03-26T06:18:15.491Z,293.8
2019-03-26T06:21:21.548Z,292.3
2019-03-26T06:24:27.473Z,296.6
2019-03-26T06:27:33.464Z,293.8
2019-03-26T06:30:39.355Z,293.8
2019-03-26T06:33:45.369Z,301
2019-03-26T06:36:51.429Z,295.2
2019-03-26T06:40:00.354Z,299.5
2019-03-26T06:43:08.444Z,302.4
2019-03-26T06:46:14.312Z,303.8
2019-03-26T06:49:20.532Z,301
2019-03-26T06:52:26.468Z,306.7
2019-03-26T06:55:32.539Z,305.3
2019-03-26T06:58:38.594Z,306.7
2019-03-26T07:01:44.473Z,306.7
2019-03-26T07:04:50.521Z,302.4
2019-03-26T07:07:56.480Z,302.4
2019-03-26T07:11:02.697Z,298.1
2019-03-26T07:14:08.712Z,301
2019-03-26T07:17:14.661Z,298.1
2019-03-26T07:20:23.597Z,280.8
2019-03-26T07:23:29.472Z,293.8
2019-03-26T07:26:35.537Z,285.1
2019-03-26T07:29:41.475Z,290.9
2019-03-26T07:32:47.363Z,292.3
2019-03-26T07:35:53.399Z,292.3
2019-03-26T07:38:59.354Z,288
2019-03-26T07:42:08.696Z,290.9
2019-03-26T07:45:14.658Z,289.4
2019-03-26T07:48:20.659Z,286.6
2019-03-26T07:51:26.563Z,293.8
2019-03-26T07:54:35.626Z,292.3
2019-03-26T07:57:41.553Z,298.1
2019-03-26T08:00:47.525Z,286.6
2019-03-26T08:03:53.435Z,289.4
2019-03-26T08:07:02.029Z,286.6
2019-03-26T08:10:07.982Z,286.6
2019-03-26T08:13:14.114Z,283.7
2019-03-26T08:16:20.303Z,276.5
2019-03-26T08:19:27.227Z,285.1
2019-03-26T08:22:33.254Z,286.6
2019-03-26T08:25:39.265Z,288
2019-03-26T08:28:45.171Z,289.4
2019-03-26T08:31:51.131Z,285.1
2019-03-26T08:34:57.521Z,290.9
2019-03-26T08:38:16.020Z,288
2019-03-26T08:41:22.015Z,290.9
2019-03-26T08:44:27.974Z,292.3
2019-03-26T08:47:33.834Z,292.3
2019-03-26T08:50:39.802Z,288
2019-03-26T08:53:45.669Z,290.9
2019-03-26T08:56:51.716Z,290.9
2019-03-26T08:59:57.577Z,295.2
2019-03-26T09:03:06.110Z,295.2
2019-03-26T09:06:12.047Z,293.8
2019-03-26T09:09:18.204Z,292.3
2019-03-26T09:12:24.235Z,292.3
2019-03-26T09:15:30.254Z,292.3
2019-03-26T09:18:36.188Z,290.9
2019-03-26T09:21:42.434Z,288
2019-03-26T09:24:48.345Z,289.4
2019-03-26T09:27:55.683Z,290.9
2019-03-26T09:31:01.561Z,289.4
2019-03-26T09:34:10.941Z,272.2
2019-03-26T09:37:16.972Z,286.6
2019-03-26T09:40:22.939Z,290.9
2019-03-26T09:43:28.862Z,290.9
2019-03-26T09:46:34.964Z,290.9
2019-03-26T09:49:40.851Z,244.8
2019-03-26T09:52:46.887Z,289.4
2019-03-26T09:55:52.839Z,282.2
2019-03-26T09:58:58.840Z,280.8
2019-03-26T10:02:04.868Z,270.7
2019-03-26T10:05:11.019Z,280.8
2019-03-26T10:08:20.093Z,280.8
2019-03-26T10:11:26.021Z,285.1
2019-03-26T10:14:31.878Z,286.6
2019-03-26T10:17:37.838Z,285.1
2019-03-26T10:20:43.812Z,285.1
2019-03-26T10:23:49.751Z,286.6
2019-03-26T10:26:55.715Z,288
2019-03-26T10:30:01.719Z,286.6
2019-03-26T10:33:11.212Z,286.6
2019-03-26T10:36:17.169Z,288
2019-03-26T10:39:23.235Z,289.4
2019-03-26T10:42:29.296Z,290.9
2019-03-26T10:45:35.271Z,289.4
2019-03-26T10:48:41.121Z,292.3
2019-03-26T10:51:47.116Z,293.8
2019-03-26T10:54:53.144Z,293.8
2019-03-26T10:57:59.026Z,298.1
2019-03-26T11:01:05.050Z,290.9
2019-03-26T11:04:11.120Z,289.4
2019-03-26T11:07:17.081Z,293.8
2019-03-26T11:10:22.948Z,293.8
2019-03-26T11:13:29.306Z,292.3
2019-03-26T11:16:35.254Z,292.3
2019-03-26T11:19:41.224Z,292.3
2019-03-26T11:22:50.660Z,289.4
2019-03-26T11:25:56.727Z,289.4
2019-03-26T11:29:02.632Z,289.4
2019-03-26T11:32:08.763Z,289.4
2019-03-26T11:35:14.854Z,288
2019-03-26T11:38:21.789Z,286.6
2019-03-26T11:41:27.830Z,266.4
2019-03-26T11:44:33.818Z,240.5
2019-03-26T11:47:39.784Z,285.1
2019-03-26T11:50:45.884Z,276.5
2019-03-26T11:53:51.760Z,272.2
2019-03-26T11:56:57.861Z,272.2
2019-03-26T12:00:03.820Z,267.8
2019-03-26T12:03:09.788Z,236.2
2019-03-26T12:06:15.832Z,279.4
2019-03-26T12:09:22.016Z,279.4
2019-03-26T12:12:27.881Z,277.9
2019-03-26T12:15:33.834Z,276.5
2019-03-26T12:18:39.812Z,275
2019-03-26T12:21:46.776Z,273.6
2019-03-26T12:24:52.734Z,272.2
2019-03-26T12:27:58.956Z,270.7
2019-03-26T12:31:04.971Z,269.3
2019-03-26T12:34:11.002Z,269.3
2019-03-26T12:37:17.081Z,269.3
2019-03-26T12:40:23.052Z,267.8
2019-03-26T12:43:29.218Z,266.4
2019-03-26T12:46:35.266Z,265
2019-03-26T12:49:41.244Z,265
2019-03-26T12:52:47.157Z,265
2019-03-26T12:55:53.257Z,263.5
2019-03-26T12:58:59.208Z,263.5
2019-03-26T13:02:05.256Z,263.5
2019-03-26T13:05:11.354Z,263.5
2019-03-26T13:08:17.303Z,262.1
2019-03-26T13:11:23.249Z,266.4
2019-03-26T13:14:29.220Z,266.4
2019-03-26T13:17:35.097Z,265
2019-03-26T13:20:41.085Z,265
2019-03-26T13:23:47.992Z,265
2019-03-26T13:26:53.979Z,259.2
2019-03-26T13:30:00.934Z,265
2019-03-26T13:33:06.993Z,266.4
2019-03-26T13:36:12.957Z,263.5
2019-03-26T13:39:18.836Z,266.4
2019-03-26T13:42:24.825Z,267.8
2019-03-26T13:45:33.931Z,260.6
2019-03-26T13:48:39.940Z,270.7
2019-03-26T13:51:45.821Z,269.3
2019-03-26T13:54:51.813Z,270.7
2019-03-26T13:57:57.846Z,231.8
2019-03-26T14:01:03.729Z,269.3
2019-03-26T14:04:09.791Z,270.7
2019-03-26T14:07:15.753Z,270.7
2019-03-26T14:10:21.866Z,265
2019-03-26T14:13:28.000Z,233.3
2019-03-26T14:16:33.862Z,267.8
2019-03-26T14:19:40.099Z,269.3
2019-03-26T14:22:46.074Z,270.7
2019-03-26T14:25:51.941Z,269.3
2019-03-26T14:28:58.006Z,270.7
2019-03-26T14:32:04.156Z,270.7
2019-03-26T14:35:10.269Z,270.7
2019-03-26T14:38:16.384Z,272.2
2019-03-26T14:41:22.320Z,269.3
2019-03-26T14:44:28.292Z,269.3
2019-03-26T14:47:35.188Z,269.3
2019-03-26T14:50:41.246Z,269.3
2019-03-26T14:53:47.352Z,267.8
2019-03-26T14:56:53.242Z,269.3
2019-03-26T15:00:00.374Z,267.8
2019-03-26T15:03:06.326Z,267.8
2019-03-26T15:06:12.268Z,267.8
2019-03-26T15:09:18.536Z,266.4
2019-03-26T15:12:24.736Z,265
2019-03-26T15:15:30.618Z,263.5
2019-03-26T15:18:40.149Z,263.5
2019-03-26T15:21:46.061Z,263.5
2019-03-26T15:24:52.020Z,263.5
2019-03-26T15:27:58.082Z,265
2019-03-26T15:31:04.043Z,263.5
2019-03-26T15:34:09.975Z,262.1
2019-03-26T15:37:15.962Z,263.5
2019-03-26T15:40:21.928Z,263.5
2019-03-26T15:43:27.830Z,262.1
2019-03-26T15:46:36.974Z,262.1
2019-03-26T15:49:42.973Z,260.6
2019-03-26T15:52:48.940Z,260.6
2019-03-26T15:55:54.894Z,260.6
2019-03-26T15:59:00.963Z,259.2
2019-03-26T16:02:07.014Z,260.6
2019-03-26T16:05:12.957Z,260.6
2019-03-26T16:08:18.934Z,260.6
2019-03-26T16:11:38.796Z,260.6
2019-03-26T16:14:44.678Z,260.6
2019-03-26T16:17:51.680Z,260.6
2019-03-26T16:20:57.594Z,259.2
2019-03-26T16:24:03.592Z,259.2
2019-03-26T16:27:09.515Z,259.2
2019-03-26T16:30:15.397Z,259.2
2019-03-26T16:33:21.365Z,257.8
2019-03-26T16:36:27.323Z,257.8
2019-03-26T16:39:33.235Z,257.8
2019-03-26T16:42:39.346Z,259.2
2019-03-26T16:45:45.306Z,257.8
2019-03-26T16:48:51.377Z,257.8
2019-03-26T16:51:59.895Z,259.2
2019-03-26T16:55:05.853Z,256.3
2019-03-26T16:58:11.813Z,259.2
2019-03-26T17:01:17.690Z,259.2
2019-03-26T17:04:23.629Z,259.2
2019-03-26T17:07:29.587Z,259.2
2019-03-26T17:10:35.638Z,259.2
2019-03-26T17:13:41.610Z,257.8
2019-03-26T17:16:50.282Z,259.2
2019-03-26T17:19:56.293Z,257.8
2019-03-26T17:23:02.233Z,259.2
2019-03-26T17:26:08.314Z,259.2
2019-03-26T17:29:14.189Z,257.8
2019-03-26T17:32:20.131Z,262.1
2019-03-26T17:35:26.224Z,262.1
2019-03-26T17:38:32.333Z,262.1
2019-03-26T17:41:38.403Z,262.1
2019-03-26T17:44:47.433Z,262.1
2019-03-26T17:47:55.763Z,262.1
2019-03-26T17:51:01.640Z,262.1
2019-03-26T17:54:07.790Z,262.1
2019-03-26T17:57:13.658Z,260.6
2019-03-26T18:00:22.572Z,262.1
2019-03-26T18:03:30.073Z,263.5
2019-03-26T18:06:36.025Z,262.1
2019-03-26T18:09:42.094Z,262.1
2019-03-26T18:12:49.913Z,262.1
2019-03-26T18:15:55.802Z,262.1
2019-03-26T18:19:01.711Z,263.5
2019-03-26T18:22:07.773Z,263.5
2019-03-26T18:25:13.645Z,260.6
2019-03-26T18:28:19.593Z,260.6
2019-03-26T18:31:25.549Z,259.2
2019-03-26T18:34:34.334Z,260.6
2019-03-26T18:37:40.243Z,260.6
2019-03-26T18:40:46.205Z,260.6
2019-03-26T18:43:52.216Z,260.6
2019-03-26T18:46:58.124Z,262.1
2019-03-26T18:50:04.080Z,262.1
2019-03-26T18:53:09.986Z,262.1
2019-03-26T18:56:15.891Z,260.6
2019-03-26T18:59:21.964Z,260.6
2019-03-26T19:02:27.840Z,262.1
2019-03-26T19:05:33.779Z,262.1
2019-03-26T19:08:42.811Z,262.1
2019-03-26T19:11:48.771Z,262.1
2019-03-26T19:14:54.733Z,260.6
2019-03-26T19:18:00.778Z,262.1
2019-03-26T19:21:06.746Z,262.1
2019-03-26T19:24:12.623Z,262.1
2019-03-26T19:27:18.563Z,259.2
2019-03-26T19:30:24.442Z,260.6
2019-03-26T19:33:30.390Z,260.6
2019-03-26T19:36:36.352Z,260.6
2019-03-26T19:39:42.224Z,260.6
2019-03-26T19:42:48.303Z,260.6
2019-03-26T19:45:54.140Z,260.6
2019-03-26T19:49:00.283Z,260.6
2019-03-26T19:52:06.185Z,260.6
2019-03-26T19:55:12.100Z,260.6
2019-03-26T19:58:18.176Z,262.1
2019-03-26T20:01:24.038Z,260.6
2019-03-26T20:04:30.086Z,260.6
2019-03-26T20:07:38.971Z,260.6
2019-03-26T20:10:44.865Z,262.1
2019-03-26T20:13:50.835Z,260.6
2019-03-26T20:16:56.707Z,260.6
2019-03-26T20:20:02.809Z,260.6
2019-03-26T20:23:08.678Z,260.6
2019-03-26T20:26:14.677Z,260.6
2019-03-26T20:29:20.549Z,260.6
2019-03-26T20:32:26.661Z,260.6
2019-03-26T20:35:32.543Z,260.6
2019-03-26T20:38:38.522Z,260.6
2019-03-26T20:41:44.477Z,260.6
2019-03-26T20:44:50.364Z,262.1
2019-03-26T20:47:56.294Z,262.1
2019-03-26T20:51:02.255Z,262.1
2019-03-26T20:54:08.225Z,262.1
2019-03-26T20:57:14.094Z,260.6
2019-03-26T21:00:20.032Z,262.1
2019-03-26T21:03:25.999Z,260.6
2019-03-26T21:06:31.895Z,262.1
2019-03-26T21:09:37.893Z,260.6
2019-03-26T21:12:43.985Z,260.6
2019-03-26T21:16:00.223Z,260.6
2019-03-26T21:19:06.149Z,260.6
2019-03-26T21:22:12.092Z,256.3
2019-03-26T21:25:18.065Z,0
2019-03-26T21:28:24.013Z,0
2019-03-26T21:31:29.890Z,0
2019-03-26T21:34:36.189Z,0
2019-03-26T21:37:42.153Z,0
2019-03-26T21:40:50.410Z,0
2019-03-26T21:44:07.386Z,0
2019-03-26T21:47:13.271Z,0
2019-03-26T21:50:19.354Z,0
2019-03-26T21:53:25.416Z,0
2019-03-26T21:56:31.322Z,0
2019-03-26T21:59:37.336Z,0
2019-03-26T22:02:43.448Z,0
2019-03-26T22:05:51.048Z,0
2019-03-26T22:08:56.979Z,0
2019-03-26T22:12:03.016Z,0
2019-03-26T22:15:08.975Z,0
2019-03-26T22:18:14.860Z,0
2019-03-26T22:21:20.796Z,0
2019-03-26T22:24:26.764Z,0
2019-03-26T22:27:32.634Z,0
2019-03-26T22:30:38.585Z,0
2019-03-26T22:33:44.538Z,0
2019-03-26T22:36:50.600Z,0
2019-03-26T22:39:56.539Z,0
2019-03-26T22:43:02.598Z,0
2019-03-26T22:46:08.578Z,0
2019-03-26T22:49:14.451Z,0
2019-03-26T22:52:20.513Z,0
2019-03-26T22:55:26.458Z,0
2019-03-26T22:58:32.418Z,0
2019-03-26T23:01:38.293Z,0
2019-03-26T23:04:44.267Z,0
2019-03-26T23:07:50.211Z,0
2019-03-26T23:10:56.158Z,0
2019-03-26T23:14:02.114Z,0
2019-03-26T23:17:08.087Z,0
2019-03-26T23:20:13.955Z,0
2019-03-26T23:23:19.994Z,0
2019-03-26T23:26:26.177Z,0
2019-03-26T23:29:34.870Z,0
2019-03-26T23:32:40.867Z,0
2019-03-26T23:35:46.895Z,0
2019-03-26T23:38:52.872Z,0
2019-03-26T23:41:58.835Z,0
2019-03-26T23:45:04.791Z,0
2019-03-26T23:48:10.753Z,0
2019-03-26T23:51:16.620Z,0
2019-03-26T23:54:22.795Z,0
2019-03-26T23:57:28.631Z,0
